Time;durP1;ratioP1;P1;durP2;ratioP2;P2;SDS_P1;SDS_P2;PMS_P1;PMS_P2;Temp;Humidity;BMP_temperature;BMP_pressure;BME280_temperature;BME280_humidity;BME280_pressure;Samples;Min_cycle;Max_cycle;Signal;HPM_P1;HPM_P2
2021/10/19 00:00:36;;;;;;;16.17;12.23;;;;;;;;;;5051523;28;20414;-49
2021/10/19 00:03:02;;;;;;;18.00;12.27;;;;;;;;;;5051001;28;20427;-46
2021/10/19 00:05:28;;;;;;;16.97;12.23;;;;;;;;;;5051459;28;20495;-46
2021/10/19 00:07:54;;;;;;;20.67;13.80;;;;;;;;;;5051280;28;20938;-46
2021/10/19 00:10:20;;;;;;;18.00;13.97;;;;;;;;;;5051286;28;20453;-46
2021/10/19 00:12:46;;;;;;;19.37;13.83;;;;;;;;;;5051103;28;20423;-45
2021/10/19 00:15:13;;;;;;;25.53;13.83;;;;;;;;;;5051283;28;20407;-46
2021/10/19 00:17:40;;;;;;;21.67;14.30;;;;;;;;;;5051107;28;20398;-45
2021/10/19 00:20:06;;;;;;;20.40;14.27;;;;;;;;;;5055007;28;20478;-46
2021/10/19 00:22:33;;;;;;;22.53;13.97;;;;;;;;;;5054758;28;20931;-46
2021/10/19 00:25:04;;;;;;;18.17;13.83;;;;;;;;;;5055245;28;20406;-45
2021/10/19 00:27:30;;;;;;;20.10;14.17;;;;;;;;;;5054936;28;20772;-48
2021/10/19 00:29:56;;;;;;;18.83;14.67;;;;;;;;;;5054850;28;20878;-48
2021/10/19 00:32:22;;;;;;;17.00;13.20;;;;;;;;;;5054418;28;20455;-46
2021/10/19 00:34:48;;;;;;;19.63;13.40;;;;;;;;;;5054906;28;20406;-46
2021/10/19 00:37:14;;;;;;;19.50;14.73;;;;;;;;;;5054761;28;20506;-46
2021/10/19 00:39:40;;;;;;;19.90;12.93;;;;;;;;;;5054791;28;20834;-45
2021/10/19 00:42:06;;;;;;;18.97;14.23;;;;;;;;;;5054455;28;20505;-46
2021/10/19 00:44:32;;;;;;;19.10;13.47;;;;;;;;;;5054653;28;20402;-46
2021/10/19 00:46:58;;;;;;;20.93;13.80;;;;;;;;;;5054406;28;20776;-46
2021/10/19 00:49:25;;;;;;;19.40;13.40;;;;;;;;;;5054469;28;20408;-46
2021/10/19 00:51:51;;;;;;;19.23;13.40;;;;;;;;;;5054219;28;20422;-46
2021/10/19 00:54:18;;;;;;;18.67;13.43;;;;;;;;;;5054524;28;20441;-46
2021/10/19 00:56:44;;;;;;;23.07;14.40;;;;;;;;;;5054321;28;20537;-47
2021/10/19 00:59:10;;;;;;;22.40;12.93;;;;;;;;;;5054389;28;20886;-47
2021/10/19 01:01:36;;;;;;;24.33;13.27;;;;;;;;;;5053924;28;20425;-48
2021/10/19 01:04:02;;;;;;;21.50;14.27;;;;;;;;;;5053312;28;20485;-46
2021/10/19 01:06:28;;;;;;;19.23;13.10;;;;;;;;;;5053467;28;20408;-49
2021/10/19 01:08:55;;;;;;;16.87;12.73;;;;;;;;;;5052886;28;20419;-45
2021/10/19 01:11:21;;;;;;;14.67;12.10;;;;;;;;;;5054024;28;20459;-46
2021/10/19 01:13:47;;;;;;;17.80;12.90;;;;;;;;;;5053686;28;20412;-49
2021/10/19 01:16:13;;;;;;;18.00;11.40;;;;;;;;;;5053967;28;20488;-46
2021/10/19 01:18:39;;;;;;;14.93;12.20;;;;;;;;;;5053818;28;20423;-45
2021/10/19 01:21:06;;;;;;;22.50;13.70;;;;;;;;;;5053887;28;20458;-46
2021/10/19 01:23:33;;;;;;;15.07;11.30;;;;;;;;;;5053809;28;20774;-46
2021/10/19 01:26:00;;;;;;;15.93;11.73;;;;;;;;;;5053903;28;20754;-47
2021/10/19 01:28:26;;;;;;;16.67;12.37;;;;;;;;;;5053533;28;20822;-46
2021/10/19 01:30:54;;;;;;;17.40;11.20;;;;;;;;;;5053262;28;20452;-47
2021/10/19 01:33:20;;;;;;;18.47;13.40;;;;;;;;;;5053479;28;20400;-47
2021/10/19 01:35:47;;;;;;;17.97;12.90;;;;;;;;;;5053729;28;20947;-46
2021/10/19 01:38:15;;;;;;;14.70;11.90;;;;;;;;;;5053587;28;20404;-46
2021/10/19 01:40:41;;;;;;;17.03;12.60;;;;;;;;;;5053996;28;20405;-46
2021/10/19 01:43:15;;;;;;;18.50;13.03;;;;;;;;;;5053174;28;20428;-46
2021/10/19 01:45:41;;;;;;;18.03;12.87;;;;;;;;;;5053466;28;20494;-46
2021/10/19 01:48:08;;;;;;;19.23;12.90;;;;;;;;;;5053632;28;20408;-46
2021/10/19 01:50:34;;;;;;;20.67;13.03;;;;;;;;;;5053350;28;20451;-46
2021/10/19 01:53:01;;;;;;;17.03;12.73;;;;;;;;;;5053093;28;21042;-46
2021/10/19 01:55:27;;;;;;;15.90;12.40;;;;;;;;;;5053302;28;20453;-46
2021/10/19 01:57:53;;;;;;;17.53;12.60;;;;;;;;;;5053710;28;20399;-46
2021/10/19 02:00:19;;;;;;;18.00;12.90;;;;;;;;;;5053203;28;20904;-46
2021/10/19 02:02:45;;;;;;;20.03;12.70;;;;;;;;;;5052848;28;20436;-46
2021/10/19 02:05:11;;;;;;;16.80;12.57;;;;;;;;;;5053130;28;20939;-45
2021/10/19 02:07:38;;;;;;;17.27;12.77;;;;;;;;;;5053002;28;20415;-46
2021/10/19 02:10:05;;;;;;;22.43;13.37;;;;;;;;;;5052911;28;20443;-49
2021/10/19 02:12:31;;;;;;;22.93;13.10;;;;;;;;;;5052691;28;20439;-46
2021/10/19 02:14:57;;;;;;;17.77;13.10;;;;;;;;;;5052834;28;20413;-46
2021/10/19 02:17:23;;;;;;;16.97;12.80;;;;;;;;;;5052959;28;20465;-46
2021/10/19 02:19:49;;;;;;;21.30;12.70;;;;;;;;;;5052788;28;20427;-46
2021/10/19 02:22:15;;;;;;;21.30;14.00;;;;;;;;;;5052485;28;20438;-47
2021/10/19 02:24:41;;;;;;;17.43;13.07;;;;;;;;;;5052666;28;20898;-48
2021/10/19 02:27:07;;;;;;;18.00;13.50;;;;;;;;;;5053078;28;20430;-46
2021/10/19 02:29:33;;;;;;;16.30;12.20;;;;;;;;;;5052578;28;20541;-49
2021/10/19 02:31:59;;;;;;;19.40;13.97;;;;;;;;;;5052613;28;20495;-45
2021/10/19 02:34:25;;;;;;;17.93;13.27;;;;;;;;;;5052981;28;20399;-46
2021/10/19 02:36:51;;;;;;;21.07;13.97;;;;;;;;;;5052524;28;20396;-45
2021/10/19 02:39:17;;;;;;;19.43;14.13;;;;;;;;;;5052430;28;20403;-46
2021/10/19 02:41:43;;;;;;;18.10;13.43;;;;;;;;;;5051506;28;20426;-46
2021/10/19 02:44:09;;;;;;;19.60;13.40;;;;;;;;;;5052363;28;20792;-46
2021/10/19 02:46:36;;;;;;;16.30;12.07;;;;;;;;;;5052314;28;20405;-45
2021/10/19 02:49:02;;;;;;;19.40;13.57;;;;;;;;;;5052338;28;20438;-45
2021/10/19 02:51:28;;;;;;;21.17;12.90;;;;;;;;;;5052047;28;20828;-46
2021/10/19 02:53:54;;;;;;;18.30;12.80;;;;;;;;;;5051968;28;20397;-46
2021/10/19 02:56:20;;;;;;;20.03;12.70;;;;;;;;;;5052188;28;20474;-45
2021/10/19 02:58:46;;;;;;;18.97;13.57;;;;;;;;;;5052115;28;20396;-46
2021/10/19 03:01:13;;;;;;;19.60;13.33;;;;;;;;;;5052270;28;20425;-46
2021/10/19 03:03:39;;;;;;;17.10;12.47;;;;;;;;;;5051842;28;20772;-46
2021/10/19 03:06:05;;;;;;;17.23;12.20;;;;;;;;;;5050758;28;20419;-46
2021/10/19 03:08:31;;;;;;;18.87;12.33;;;;;;;;;;5051805;28;20417;-46
2021/10/19 03:10:57;;;;;;;16.00;12.33;;;;;;;;;;5051821;28;20458;-45
2021/10/19 03:13:24;;;;;;;17.67;13.00;;;;;;;;;;5051743;28;20398;-46
2021/10/19 03:15:50;;;;;;;19.40;12.90;;;;;;;;;;5051920;28;20522;-46
2021/10/19 03:18:16;;;;;;;16.80;12.57;;;;;;;;;;5051727;28;20450;-49
2021/10/19 03:20:42;;;;;;;16.47;12.20;;;;;;;;;;5051920;28;20428;-46
2021/10/19 03:23:09;;;;;;;20.63;13.43;;;;;;;;;;5051595;28;20981;-45
2021/10/19 03:25:35;;;;;;;19.70;13.23;;;;;;;;;;5051771;28;20891;-46
2021/10/19 03:28:01;;;;;;;17.87;13.50;;;;;;;;;;5051673;28;20408;-46
2021/10/19 03:30:27;;;;;;;17.70;13.13;;;;;;;;;;5051692;28;20945;-46
2021/10/19 03:32:52;;;;;;;18.43;12.63;;;;;;;;;;5051408;28;20421;-46
2021/10/19 03:35:18;;;;;;;18.87;13.20;;;;;;;;;;5051714;28;20442;-45
2021/10/19 03:37:44;;;;;;;16.37;12.03;;;;;;;;;;5051518;28;20403;-46
2021/10/19 03:40:11;;;;;;;19.00;14.30;;;;;;;;;;5051817;28;20420;-46
2021/10/19 03:42:41;;;;;;;18.53;13.53;;;;;;;;;;5051314;28;20461;-45
2021/10/19 03:45:07;;;;;;;17.67;13.93;;;;;;;;;;5051616;28;20486;-46
2021/10/19 03:47:33;;;;;;;18.90;14.00;;;;;;;;;;5051499;28;20901;-46
2021/10/19 03:49:59;;;;;;;20.03;13.60;;;;;;;;;;5051573;28;20457;-46
2021/10/19 03:52:25;;;;;;;20.13;13.73;;;;;;;;;;5053251;28;20454;-46
2021/10/19 03:54:51;;;;;;;24.77;15.77;;;;;;;;;;5055540;28;20400;-46
2021/10/19 03:57:17;;;;;;;20.30;15.00;;;;;;;;;;5055688;28;20397;-48
2021/10/19 03:59:43;;;;;;;21.93;15.20;;;;;;;;;;5055485;28;20403;-45
2021/10/19 04:02:09;;;;;;;23.27;15.60;;;;;;;;;;5055164;28;20419;-46
2021/10/19 04:04:36;;;;;;;24.80;15.30;;;;;;;;;;5055439;28;20406;-45
2021/10/19 04:07:02;;;;;;;21.27;15.53;;;;;;;;;;5055266;28;20400;-46
2021/10/19 04:09:28;;;;;;;22.03;15.60;;;;;;;;;;5055224;28;20489;-46
2021/10/19 04:11:54;;;;;;;25.53;16.40;;;;;;;;;;5054956;28;20508;-46
2021/10/19 04:14:20;;;;;;;25.47;16.70;;;;;;;;;;5055517;28;20492;-46
2021/10/19 04:16:46;;;;;;;24.00;17.20;;;;;;;;;;5055089;28;20404;-49
2021/10/19 04:19:13;;;;;;;24.37;16.80;;;;;;;;;;5054999;28;20418;-46
2021/10/19 04:21:47;;;;;;;21.60;15.97;;;;;;;;;;5054923;28;20421;-46
2021/10/19 04:24:13;;;;;;;24.30;15.77;;;;;;;;;;5056136;28;20890;-47
2021/10/19 04:26:39;;;;;;;22.30;15.80;;;;;;;;;;5054871;28;20465;-47
2021/10/19 04:29:06;;;;;;;21.57;15.93;;;;;;;;;;5054950;28;20419;-47
2021/10/19 04:31:32;;;;;;;24.90;15.70;;;;;;;;;;5054764;28;20810;-47
2021/10/19 04:34:01;;;;;;;26.50;16.90;;;;;;;;;;5054595;28;20521;-47
2021/10/19 04:36:27;;;;;;;25.30;17.37;;;;;;;;;;5054795;28;20427;-47
2021/10/19 04:38:53;;;;;;;25.00;17.20;;;;;;;;;;5054778;28;20874;-47
2021/10/19 04:41:25;;;;;;;25.23;17.27;;;;;;;;;;5054718;28;20421;-47
2021/10/19 04:43:51;;;;;;;21.97;15.80;;;;;;;;;;5054442;28;20402;-47
2021/10/19 04:46:17;;;;;;;25.00;16.60;;;;;;;;;;5054573;28;20771;-47
2021/10/19 04:48:43;;;;;;;26.57;17.77;;;;;;;;;;5054599;28;20408;-47
2021/10/19 04:51:10;;;;;;;26.17;16.03;;;;;;;;;;5054443;28;20996;-47
2021/10/19 04:53:36;;;;;;;20.93;16.63;;;;;;;;;;5054344;28;20437;-47
2021/10/19 04:56:03;;;;;;;23.93;16.13;;;;;;;;;;5053153;28;20507;-47
2021/10/19 04:58:29;;;;;;;21.60;15.60;;;;;;;;;;5054752;28;20373;-47
2021/10/19 05:00:54;;;;;;;22.43;15.63;;;;;;;;;;5054281;28;20956;-47
2021/10/19 05:03:21;;;;;;;24.40;14.47;;;;;;;;;;5053718;28;20405;-47
2021/10/19 05:05:52;;;;;;;22.20;15.07;;;;;;;;;;5054055;28;20844;-47
2021/10/19 05:08:18;;;;;;;21.13;15.40;;;;;;;;;;5054159;28;20405;-47
2021/10/19 05:10:44;;;;;;;23.33;15.50;;;;;;;;;;5054028;28;20440;-47
2021/10/19 05:13:13;;;;;;;19.67;14.47;;;;;;;;;;5053909;28;20832;-47
2021/10/19 05:15:39;;;;;;;18.93;14.03;;;;;;;;;;5053989;28;20395;-48
2021/10/19 05:18:06;;;;;;;17.03;13.23;;;;;;;;;;5053841;28;20421;-47
2021/10/19 05:20:32;;;;;;;16.27;12.30;;;;;;;;;;5054052;28;20442;-47
2021/10/19 05:22:58;;;;;;;15.70;12.03;;;;;;;;;;5053715;28;20477;-47
2021/10/19 05:25:24;;;;;;;15.30;12.20;;;;;;;;;;5053872;28;20401;-47
2021/10/19 05:27:50;;;;;;;15.40;12.90;;;;;;;;;;5053728;28;20411;-47
2021/10/19 05:30:17;;;;;;;17.37;12.53;;;;;;;;;;5053806;28;20665;-47
2021/10/19 05:32:43;;;;;;;15.50;11.10;;;;;;;;;;5053462;28;20561;-47
2021/10/19 05:35:09;;;;;;;20.60;13.30;;;;;;;;;;5053743;28;20457;-47
2021/10/19 05:37:35;;;;;;;15.13;11.37;;;;;;;;;;5053637;28;20393;-47
2021/10/19 05:40:02;;;;;;;15.17;11.60;;;;;;;;;;5053571;28;20475;-47
2021/10/19 05:42:28;;;;;;;16.70;11.90;;;;;;;;;;5053771;28;20503;-47
2021/10/19 05:44:54;;;;;;;15.90;12.00;;;;;;;;;;5053449;28;20457;-47
2021/10/19 05:47:20;;;;;;;17.60;11.27;;;;;;;;;;5053546;28;20418;-48
2021/10/19 05:49:46;;;;;;;14.30;10.47;;;;;;;;;;5053311;28;20457;-47
2021/10/19 05:52:12;;;;;;;13.10;9.93;;;;;;;;;;5053082;28;20468;-47
2021/10/19 05:54:38;;;;;;;12.40;10.23;;;;;;;;;;5053358;28;20395;-47
2021/10/19 05:57:04;;;;;;;14.00;10.10;;;;;;;;;;5053225;28;20921;-47
2021/10/19 05:59:30;;;;;;;11.50;10.10;;;;;;;;;;5053220;28;20819;-47
2021/10/19 06:01:59;;;;;;;11.77;9.97;;;;;;;;;;5052934;28;20517;-47
2021/10/19 06:04:25;;;;;;;13.20;9.73;;;;;;;;;;5053173;28;20418;-47
2021/10/19 06:06:54;;;;;;;14.93;10.63;;;;;;;;;;5053151;28;20498;-47
2021/10/19 06:09:20;;;;;;;12.57;10.30;;;;;;;;;;5053105;28;20425;-47
2021/10/19 06:11:46;;;;;;;13.23;10.33;;;;;;;;;;5052672;28;20511;-47
2021/10/19 06:14:12;;;;;;;12.57;9.67;;;;;;;;;;5053019;28;20407;-47
2021/10/19 06:16:38;;;;;;;12.57;9.63;;;;;;;;;;5052896;28;20879;-48
2021/10/19 06:19:04;;;;;;;10.43;9.37;;;;;;;;;;5052802;28;20481;-47
2021/10/19 06:21:30;;;;;;;11.93;10.13;;;;;;;;;;5052773;28;20427;-48
2021/10/19 06:23:56;;;;;;;12.73;9.70;;;;;;;;;;5052622;28;20414;-47
2021/10/19 06:26:22;;;;;;;10.80;9.40;;;;;;;;;;5052573;28;20399;-48
2021/10/19 06:28:51;;;;;;;9.40;8.33;;;;;;;;;;5051428;28;20494;-47
2021/10/19 06:31:17;;;;;;;10.53;8.83;;;;;;;;;;5052491;28;20828;-47
2021/10/19 06:33:43;;;;;;;9.50;8.50;;;;;;;;;;5052404;28;20381;-47
2021/10/19 06:36:09;;;;;;;8.67;7.37;;;;;;;;;;5052551;28;20404;-47
2021/10/19 06:41:45;;;;;;;8.40;6.80;;;;;;;;;;5052177;28;20480;-47
2021/10/19 06:44:11;;;;;;;8.03;7.10;;;;;;;;;;5052604;28;20410;-47
2021/10/19 06:46:39;;;;;;;8.53;6.43;;;;;;;;;;5052374;28;20430;-47
2021/10/19 06:49:05;;;;;;;8.30;6.90;;;;;;;;;;5052110;28;20407;-48
2021/10/19 06:51:31;;;;;;;8.00;6.80;;;;;;;;;;5050364;28;20466;-47
2021/10/19 06:53:57;;;;;;;7.30;5.80;;;;;;;;;;5037139;28;20927;-48
2021/10/19 06:56:22;;;;;;;6.57;5.40;;;;;;;;;;5052397;28;20407;-47
2021/10/19 06:58:48;;;;;;;6.20;5.50;;;;;;;;;;5051468;28;20433;-47
2021/10/19 07:01:16;;;;;;;6.13;5.23;;;;;;;;;;5050061;28;20940;-47
2021/10/19 07:03:42;;;;;;;6.57;5.60;;;;;;;;;;5050053;28;20404;-47
2021/10/19 07:06:08;;;;;;;6.17;5.30;;;;;;;;;;5051086;28;20983;-47
2021/10/19 07:08:34;;;;;;;5.13;4.63;;;;;;;;;;5051171;28;20403;-47
2021/10/19 07:11:00;;;;;;;5.53;5.00;;;;;;;;;;5051816;28;20820;-47
2021/10/19 07:13:26;;;;;;;5.37;4.87;;;;;;;;;;5051612;28;20403;-48
2021/10/19 07:15:53;;;;;;;6.20;4.60;;;;;;;;;;5051923;28;20408;-47
2021/10/19 07:18:20;;;;;;;4.10;3.40;;;;;;;;;;5051752;28;20551;-48
2021/10/19 07:20:46;;;;;;;4.73;4.20;;;;;;;;;;5051757;28;20422;-47
2021/10/19 07:23:12;;;;;;;4.67;3.90;;;;;;;;;;5051476;28;20411;-47
2021/10/19 07:25:38;;;;;;;3.67;3.37;;;;;;;;;;5051778;28;20414;-47
2021/10/19 07:28:04;;;;;;;4.00;3.60;;;;;;;;;;5051279;28;20409;-47
2021/10/19 07:30:30;;;;;;;3.77;3.47;;;;;;;;;;5051709;28;20845;-48
2021/10/19 07:32:56;;;;;;;4.07;3.73;;;;;;;;;;5051429;28;20903;-47
2021/10/19 07:35:23;;;;;;;4.13;3.73;;;;;;;;;;5051765;28;21097;-48
2021/10/19 07:37:49;;;;;;;3.10;2.90;;;;;;;;;;5051816;28;20781;-48
2021/10/19 07:40:16;;;;;;;3.20;3.00;;;;;;;;;;5051612;28;20411;-48
2021/10/19 07:42:42;;;;;;;6.87;3.47;;;;;;;;;;5051364;28;20497;-47
2021/10/19 07:45:09;;;;;;;4.50;3.13;;;;;;;;;;5051651;28;20757;-47
2021/10/19 07:47:42;;;;;;;5.10;3.47;;;;;;;;;;5051537;28;20418;-47
2021/10/19 07:50:08;;;;;;;3.80;3.50;;;;;;;;;;5051365;28;20526;-48
2021/10/19 07:52:34;;;;;;;3.90;3.53;;;;;;;;;;5049528;28;20423;-48
2021/10/19 07:55:00;;;;;;;3.73;3.20;;;;;;;;;;5039529;28;20469;-47
2021/10/19 07:57:26;;;;;;;6.40;4.10;;;;;;;;;;5052062;28;20735;-48
2021/10/19 07:59:52;;;;;;;3.90;3.60;;;;;;;;;;5051670;28;20405;-47
2021/10/19 08:02:18;;;;;;;6.30;3.83;;;;;;;;;;5051096;28;20420;-48
2021/10/19 08:04:44;;;;;;;3.90;3.43;;;;;;;;;;5051369;28;20407;-47
2021/10/19 08:07:10;;;;;;;3.20;2.90;;;;;;;;;;5051173;28;20386;-48
2021/10/19 08:09:36;;;;;;;3.67;3.37;;;;;;;;;;5051260;28;20462;-48
2021/10/19 08:12:02;;;;;;;3.77;3.53;;;;;;;;;;5051053;28;20946;-47
2021/10/19 08:14:28;;;;;;;3.67;3.37;;;;;;;;;;5051258;28;20488;-48
2021/10/19 08:16:54;;;;;;;3.67;3.37;;;;;;;;;;5051260;28;20469;-47
2021/10/19 08:19:21;;;;;;;3.83;3.60;;;;;;;;;;5051153;28;20421;-48
2021/10/19 08:21:47;;;;;;;3.07;2.87;;;;;;;;;;5050927;28;20428;-46
2021/10/19 08:24:12;;;;;;;4.07;3.73;;;;;;;;;;5051221;28;20454;-47
2021/10/19 08:26:38;;;;;;;3.20;2.73;;;;;;;;;;5051199;28;20384;-47
2021/10/19 08:29:05;;;;;;;3.73;3.43;;;;;;;;;;5051179;28;20379;-48
2021/10/19 08:31:31;;;;;;;2.93;2.73;;;;;;;;;;5050937;28;20453;-47
2021/10/19 08:33:58;;;;;;;4.83;3.93;;;;;;;;;;5050784;28;20415;-47
2021/10/19 08:36:24;;;;;;;3.47;3.27;;;;;;;;;;5050963;28;20402;-47
2021/10/19 08:38:50;;;;;;;3.53;3.23;;;;;;;;;;5051309;28;20406;-49
2021/10/19 08:41:17;;;;;;;4.47;3.30;;;;;;;;;;5054736;28;20421;-47
2021/10/19 08:43:43;;;;;;;4.20;3.90;;;;;;;;;;5054686;28;20412;-47
2021/10/19 08:46:13;;;;;;;4.57;3.00;;;;;;;;;;5054633;28;20889;-47
2021/10/19 08:48:40;;;;;;;3.40;3.10;;;;;;;;;;5054607;28;20398;-48
2021/10/19 08:51:06;;;;;;;3.20;3.00;;;;;;;;;;5054211;28;20490;-48
2021/10/19 08:53:35;;;;;;;4.20;3.33;;;;;;;;;;5053621;28;20404;-47
2021/10/19 08:56:03;;;;;;;2.80;2.60;;;;;;;;;;5053591;28;20364;-47
2021/10/19 08:58:29;;;;;;;3.70;3.40;;;;;;;;;;5053665;28;20433;-48
2021/10/19 09:01:02;;;;;;;3.40;3.10;;;;;;;;;;5053482;28;20558;-47
2021/10/19 09:03:28;;;;;;;5.33;3.10;;;;;;;;;;5053946;28;20956;-48
2021/10/19 09:05:54;;;;;;;3.00;2.80;;;;;;;;;;5054355;28;20398;-48
2021/10/19 09:08:20;;;;;;;3.30;3.10;;;;;;;;;;5054224;28;20827;-47
2021/10/19 09:10:49;;;;;;;3.00;2.50;;;;;;;;;;5054117;28;20452;-47
2021/10/19 09:13:16;;;;;;;3.00;2.80;;;;;;;;;;5053963;28;20433;-47
2021/10/19 09:15:43;;;;;;;3.33;3.13;;;;;;;;;;5054077;28;20953;-47
2021/10/19 09:18:14;;;;;;;3.60;3.30;;;;;;;;;;5053890;28;20409;-47
2021/10/19 09:20:41;;;;;;;3.00;2.80;;;;;;;;;;5054049;28;20440;-47
2021/10/19 09:23:08;;;;;;;2.90;2.60;;;;;;;;;;5052360;28;20421;-47
2021/10/19 09:25:35;;;;;;;2.67;2.40;;;;;;;;;;5053880;28;20488;-48
2021/10/19 09:28:02;;;;;;;3.20;2.40;;;;;;;;;;5053580;28;20417;-47
2021/10/19 09:30:43;;;;;;;2.90;2.70;;;;;;;;;;5052453;28;20495;-48
2021/10/19 09:33:13;;;;;;;3.30;2.90;;;;;;;;;;5053619;28;20403;-48
2021/10/19 09:35:40;;;;;;;2.83;2.43;;;;;;;;;;5053657;28;20396;-47
2021/10/19 09:38:10;;;;;;;2.70;2.60;;;;;;;;;;5053618;28;20400;-48
2021/10/19 09:40:37;;;;;;;2.40;2.20;;;;;;;;;;5053455;28;20415;-47
2021/10/19 09:43:06;;;;;;;3.77;2.20;;;;;;;;;;5053328;28;20936;-47
2021/10/19 09:45:32;;;;;;;2.60;2.40;;;;;;;;;;5053733;28;20405;-47
2021/10/19 09:47:58;;;;;;;2.47;2.37;;;;;;;;;;5053334;28;20405;-48
2021/10/19 09:50:25;;;;;;;2.27;2.07;;;;;;;;;;5051605;28;20469;-47
2021/10/19 09:52:52;;;;;;;2.30;2.20;;;;;;;;;;5053789;28;20444;-47
2021/10/19 09:55:18;;;;;;;2.87;2.67;;;;;;;;;;5053231;28;20400;-47
2021/10/19 09:57:45;;;;;;;2.20;2.10;;;;;;;;;;5053318;28;20380;-46
2021/10/19 10:00:13;;;;;;;2.80;2.00;;;;;;;;;;5053204;28;20907;-48
2021/10/19 10:02:39;;;;;;;2.50;2.30;;;;;;;;;;5052946;28;20407;-48
2021/10/19 10:05:06;;;;;;;2.87;2.53;;;;;;;;;;5053043;28;20392;-47
2021/10/19 10:07:34;;;;;;;2.10;2.00;;;;;;;;;;5052883;28;20428;-48
2021/10/19 10:10:03;;;;;;;4.40;2.47;;;;;;;;;;5053010;28;20462;-48
2021/10/19 10:12:33;;;;;;;2.20;2.10;;;;;;;;;;5052669;28;20421;-47
2021/10/19 10:14:59;;;;;;;2.73;2.53;;;;;;;;;;5052957;28;20474;-47
2021/10/19 10:17:26;;;;;;;2.20;2.10;;;;;;;;;;5052815;28;20492;-47
2021/10/19 10:19:52;;;;;;;3.97;2.07;;;;;;;;;;5052751;28;20429;-47
2021/10/19 10:22:22;;;;;;;2.03;1.93;;;;;;;;;;5052388;28;20395;-47
2021/10/19 10:24:48;;;;;;;2.10;2.00;;;;;;;;;;5052740;28;20409;-47
2021/10/19 10:27:17;;;;;;;2.90;2.00;;;;;;;;;;5052623;28;20783;-47
2021/10/19 10:29:48;;;;;;;1.87;1.70;;;;;;;;;;5052595;28;20380;-48
2021/10/19 10:32:20;;;;;;;1.87;1.77;;;;;;;;;;5052337;28;20437;-47
2021/10/19 10:34:46;;;;;;;2.17;1.90;;;;;;;;;;5052346;28;20381;-48
2021/10/19 10:37:13;;;;;;;3.13;1.90;;;;;;;;;;5052430;28;20401;-48
2021/10/19 10:39:45;;;;;;;2.83;2.30;;;;;;;;;;5052563;28;20419;-48
2021/10/19 10:42:11;;;;;;;2.23;2.13;;;;;;;;;;5052116;28;20431;-48
2021/10/19 10:44:40;;;;;;;2.30;1.73;;;;;;;;;;5052390;28;20389;-48
2021/10/19 10:47:07;;;;;;;1.87;1.77;;;;;;;;;;5052241;28;20479;-48
2021/10/19 10:49:34;;;;;;;2.27;1.83;;;;;;;;;;5052242;28;20382;-48
2021/10/19 10:52:01;;;;;;;2.07;1.97;;;;;;;;;;5051946;28;20505;-48
2021/10/19 10:54:27;;;;;;;1.97;1.87;;;;;;;;;;5052198;28;20502;-48
2021/10/19 10:56:54;;;;;;;1.80;1.70;;;;;;;;;;5052127;28;20389;-48
2021/10/19 10:59:24;;;;;;;2.43;1.93;;;;;;;;;;5052136;28;20563;-48
2021/10/19 11:01:50;;;;;;;1.80;1.70;;;;;;;;;;5050952;28;20439;-48
2021/10/19 11:04:16;;;;;;;2.00;1.90;;;;;;;;;;5052084;28;20429;-48
2021/10/19 11:06:42;;;;;;;2.80;1.67;;;;;;;;;;5052055;28;20507;-48
2021/10/19 11:09:11;;;;;;;1.50;1.40;;;;;;;;;;5051910;28;20443;-49
2021/10/19 11:11:39;;;;;;;2.17;1.70;;;;;;;;;;5051721;28;20465;-48
2021/10/19 11:14:09;;;;;;;2.47;2.27;;;;;;;;;;5051859;28;20411;-48
2021/10/19 11:16:43;;;;;;;1.67;1.57;;;;;;;;;;5051846;28;20910;-47
2021/10/19 11:19:13;;;;;;;1.87;1.77;;;;;;;;;;5051779;28;20429;-48
2021/10/19 11:21:39;;;;;;;2.37;2.27;;;;;;;;;;5051703;28;20393;-48
2021/10/19 11:24:06;;;;;;;1.83;1.73;;;;;;;;;;5051766;28;20525;-48
2021/10/19 11:26:34;;;;;;;3.50;1.97;;;;;;;;;;5052136;28;20440;-48
2021/10/19 11:29:00;;;;;;;1.90;1.80;;;;;;;;;;5051685;28;20412;-47
2021/10/19 11:31:27;;;;;;;2.07;1.97;;;;;;;;;;5051561;28;20506;-47
2021/10/19 11:33:53;;;;;;;2.40;2.20;;;;;;;;;;5051560;28;20401;-48
2021/10/19 11:36:19;;;;;;;2.00;1.90;;;;;;;;;;5051590;28;20378;-49
2021/10/19 11:38:50;;;;;;;1.80;1.70;;;;;;;;;;5051815;28;20401;-48
2021/10/19 11:41:17;;;;;;;2.10;2.00;;;;;;;;;;5051610;28;20393;-48
2021/10/19 11:43:44;;;;;;;2.20;2.00;;;;;;;;;;5051388;28;20392;-47
2021/10/19 11:46:11;;;;;;;1.97;1.87;;;;;;;;;;5050345;28;20444;-48
2021/10/19 11:48:37;;;;;;;2.27;2.17;;;;;;;;;;5051534;28;20529;-49
2021/10/19 11:51:07;;;;;;;3.13;2.27;;;;;;;;;;5051454;28;21014;-47
2021/10/19 11:53:34;;;;;;;1.93;1.83;;;;;;;;;;5051349;28;20370;-48
2021/10/19 11:56:02;;;;;;;1.97;1.87;;;;;;;;;;5051457;28;20881;-47
2021/10/19 11:58:28;;;;;;;10.40;2.10;;;;;;;;;;5051426;28;20487;-48
2021/10/19 12:00:54;;;;;;;1.87;1.77;;;;;;;;;;5051441;28;20438;-48
2021/10/19 12:03:19;;;;;;;1.87;1.77;;;;;;;;;;5051213;28;20455;-48
2021/10/19 12:05:46;;;;;;;3.37;2.17;;;;;;;;;;5051456;28;20403;-48
2021/10/19 12:08:12;;;;;;;2.63;2.43;;;;;;;;;;5051419;28;20416;-48
2021/10/19 12:10:44;;;;;;;2.80;2.10;;;;;;;;;;5051206;28;20454;-48
2021/10/19 12:13:11;;;;;;;2.40;2.20;;;;;;;;;;5052007;28;20381;-48
2021/10/19 12:15:38;;;;;;;2.77;2.50;;;;;;;;;;5055310;28;20862;-48
2021/10/19 12:18:06;;;;;;;3.00;2.67;;;;;;;;;;5054933;28;20435;-48
2021/10/19 12:20:34;;;;;;;2.57;2.47;;;;;;;;;;5055195;28;20456;-48
2021/10/19 12:23:02;;;;;;;2.80;2.60;;;;;;;;;;5054607;28;20401;-48
2021/10/19 12:25:38;;;;;;;3.87;3.57;;;;;;;;;;5054999;28;20419;-48
2021/10/19 12:28:05;;;;;;;3.70;3.00;;;;;;;;;;5055019;28;20743;-48
2021/10/19 12:30:38;;;;;;;3.77;3.17;;;;;;;;;;5054893;28;20969;-48
2021/10/19 12:33:21;;;;;;;4.77;4.20;;;;;;;;;;5054688;28;20435;-48
2021/10/19 12:35:57;;;;;;;4.20;3.90;;;;;;;;;;5054833;28;20382;-47
2021/10/19 12:38:40;;;;;;;4.20;3.90;;;;;;;;;;5055091;28;20386;-47
2021/10/19 12:41:14;;;;;;;4.30;4.00;;;;;;;;;;5054789;28;20402;-48
2021/10/19 12:43:41;;;;;;;4.20;3.80;;;;;;;;;;5054534;28;20415;-50
2021/10/19 12:46:08;;;;;;;4.43;4.13;;;;;;;;;;5054663;28;20411;-47
2021/10/19 12:48:36;;;;;;;5.10;4.60;;;;;;;;;;5053361;28;20465;-48
2021/10/19 12:51:04;;;;;;;4.63;4.33;;;;;;;;;;5054486;28;20452;-48
2021/10/19 12:53:30;;;;;;;4.77;4.33;;;;;;;;;;5054366;28;20458;-48
2021/10/19 12:55:56;;;;;;;5.30;4.90;;;;;;;;;;5054628;28;20398;-48
2021/10/19 12:58:22;;;;;;;6.30;5.80;;;;;;;;;;5054309;28;20490;-48
2021/10/19 13:00:48;;;;;;;6.23;5.63;;;;;;;;;;5053078;28;20437;-48
2021/10/19 13:03:14;;;;;;;6.20;5.70;;;;;;;;;;5054064;28;20399;-47
2021/10/19 13:05:42;;;;;;;6.60;6.10;;;;;;;;;;5054227;28;20466;-47
2021/10/19 13:08:08;;;;;;;8.00;7.23;;;;;;;;;;5054175;28;20758;-48
2021/10/19 13:10:34;;;;;;;7.67;6.97;;;;;;;;;;5054125;28;20478;-48
2021/10/19 13:13:00;;;;;;;7.80;7.00;;;;;;;;;;5053751;28;20398;-48
2021/10/19 13:15:26;;;;;;;10.20;8.40;;;;;;;;;;5054116;28;20424;-48
2021/10/19 13:17:52;;;;;;;8.60;7.90;;;;;;;;;;5054108;28;20436;-48
2021/10/19 13:20:18;;;;;;;6.83;6.33;;;;;;;;;;5052768;28;20961;-48
2021/10/19 13:22:45;;;;;;;8.83;8.03;;;;;;;;;;5053669;28;20913;-47
2021/10/19 13:25:12;;;;;;;9.23;8.33;;;;;;;;;;5053210;28;20415;-48
2021/10/19 13:27:38;;;;;;;10.07;9.17;;;;;;;;;;5053659;28;20403;-47
2021/10/19 13:30:06;;;;;;;10.10;9.10;;;;;;;;;;5052422;28;20796;-47
2021/10/19 13:32:32;;;;;;;9.63;8.73;;;;;;;;;;5053522;28;20601;-48
2021/10/19 13:34:58;;;;;;;11.50;10.40;;;;;;;;;;5053745;28;20401;-48
2021/10/19 13:37:24;;;;;;;12.33;9.70;;;;;;;;;;5053630;28;20799;-47
2021/10/19 13:39:51;;;;;;;10.80;9.70;;;;;;;;;;5053007;28;20804;-47
2021/10/19 13:42:17;;;;;;;10.90;9.87;;;;;;;;;;5053246;28;20500;-48
2021/10/19 13:44:44;;;;;;;13.23;10.90;;;;;;;;;;5053599;28;20906;-46
2021/10/19 13:47:10;;;;;;;10.10;9.20;;;;;;;;;;5053515;28;20406;-48
2021/10/19 13:49:36;;;;;;;9.33;8.40;;;;;;;;;;5053461;28;20772;-48
2021/10/19 13:52:02;;;;;;;12.03;9.40;;;;;;;;;;5053139;28;20470;-48
2021/10/19 13:54:29;;;;;;;9.00;7.83;;;;;;;;;;5053439;28;20372;-47
2021/10/19 13:56:55;;;;;;;8.67;7.97;;;;;;;;;;5053313;28;20914;-48
2021/10/19 13:59:21;;;;;;;7.40;6.70;;;;;;;;;;5053338;28;20417;-48
2021/10/19 14:01:47;;;;;;;8.43;7.73;;;;;;;;;;5052945;28;20459;-48
2021/10/19 14:04:13;;;;;;;6.90;6.30;;;;;;;;;;5046136;28;20434;-48
2021/10/19 14:06:39;;;;;;;7.60;6.93;;;;;;;;;;5038594;28;20387;-48
2021/10/19 14:09:05;;;;;;;7.07;6.57;;;;;;;;;;5033070;28;20862;-48
2021/10/19 14:11:31;;;;;;;7.90;7.23;;;;;;;;;;5032966;28;20468;-47
2021/10/19 14:13:58;;;;;;;7.77;6.90;;;;;;;;;;5032852;28;20377;-48
2021/10/19 14:16:25;;;;;;;7.63;6.87;;;;;;;;;;5038371;28;20388;-48
2021/10/19 14:18:52;;;;;;;7.23;6.73;;;;;;;;;;5052550;28;20507;-48
2021/10/19 14:21:19;;;;;;;5.77;5.37;;;;;;;;;;5052715;28;20412;-47
2021/10/19 14:23:45;;;;;;;7.77;7.10;;;;;;;;;;5052615;28;20899;-48
2021/10/19 14:26:11;;;;;;;7.40;6.70;;;;;;;;;;5052765;28;20383;-47
2021/10/19 14:28:37;;;;;;;7.10;6.60;;;;;;;;;;5052569;28;20375;-48
2021/10/19 14:31:03;;;;;;;7.97;7.27;;;;;;;;;;5052915;28;20457;-48